Time;durP1;ratioP1;P1;durP2;ratioP2;P2;SDS_P1;SDS_P2;PMS_P1;PMS_P2;Temp;Humidity;BMP_temperature;BMP_pressure;BME280_temperature;BME280_humidity;BME280_pressure;Samples;Min_cycle;Max_cycle;Signal;HPM_P1;HPM_P2
2023/04/14 00:00:17;;;;;;;6.17;5.53;;;;;;;4.68;100.00;101065.25;5005293;28;20195;-68
2023/04/14 00:02:43;;;;;;;7.10;5.87;;;;;;;4.67;100.00;101068.59;5007195;28;20614;-69
2023/04/14 00:05:09;;;;;;;6.27;5.43;;;;;;;4.64;100.00;101064.25;5006823;28;20269;-70
2023/04/14 00:07:34;;;;;;;6.60;5.80;;;;;;;4.55;100.00;101065.50;5005010;28;20227;-70
2023/04/14 00:10:00;;;;;;;6.53;5.60;;;;;;;4.62;100.00;101065.84;5007163;28;20574;-67
2023/04/14 00:12:25;;;;;;;10.93;6.30;;;;;;;4.68;100.00;101070.31;5007091;28;20222;-69
2023/04/14 00:14:50;;;;;;;6.70;5.83;;;;;;;4.65;100.00;101071.03;5008201;28;20645;-71
2023/04/14 00:17:16;;;;;;;7.87;6.37;;;;;;;4.43;100.00;101072.50;5010906;28;20615;-68
2023/04/14 00:19:41;;;;;;;8.63;6.20;;;;;;;4.44;100.00;101069.19;4990882;28;20261;-69
2023/04/14 00:22:07;;;;;;;8.23;6.47;;;;;;;4.41;100.00;101080.03;4993008;28;20214;-69
2023/04/14 00:24:39;;;;;;;7.90;6.53;;;;;;;4.36;100.00;101075.53;5009289;28;20198;-72
2023/04/14 00:27:05;;;;;;;8.23;6.10;;;;;;;4.22;100.00;101087.56;5010098;28;20215;-66
2023/04/14 00:29:31;;;;;;;6.33;5.47;;;;;;;4.19;100.00;101084.03;5008191;28;20198;-66
2023/04/14 00:31:56;;;;;;;8.17;6.00;;;;;;;4.06;100.00;101090.19;5009269;28;20191;-66
2023/04/14 00:34:22;;;;;;;8.37;6.67;;;;;;;4.14;100.00;101090.53;4989261;28;20556;-69
2023/04/14 00:36:47;;;;;;;7.87;6.13;;;;;;;4.13;100.00;101099.78;4992709;28;20615;-67
2023/04/14 00:39:13;;;;;;;8.03;6.43;;;;;;;4.04;100.00;101099.34;4990003;28;20199;-67
2023/04/14 00:41:38;;;;;;;9.73;6.43;;;;;;;4.05;100.00;101105.28;4992956;28;20203;-68
2023/04/14 00:44:04;;;;;;;7.50;6.40;;;;;;;4.03;100.00;101104.31;4993702;28;20199;-71
2023/04/14 00:46:30;;;;;;;7.17;6.17;;;;;;;4.03;100.00;101111.94;5010996;28;20215;-67
2023/04/14 00:48:55;;;;;;;11.63;6.50;;;;;;;3.94;100.00;101112.34;5010467;28;20310;-66
2023/04/14 00:51:22;;;;;;;7.30;6.43;;;;;;;3.92;100.00;101110.53;4989597;28;20233;-67
2023/04/14 00:53:50;;;;;;;7.50;6.23;;;;;;;3.88;100.00;101108.66;4993509;28;20237;-66
2023/04/14 00:56:16;;;;;;;9.27;6.50;;;;;;;3.84;100.00;101107.63;5010080;28;20225;-69
2023/04/14 00:58:41;;;;;;;9.13;7.27;;;;;;;3.82;100.00;101116.78;4987785;28;20561;-67
2023/04/14 01:01:07;;;;;;;9.23;7.03;;;;;;;3.73;100.00;101125.59;5010532;28;20555;-70
2023/04/14 01:03:35;;;;;;;8.30;6.90;;;;;;;3.80;100.00;101122.56;4990509;28;20203;-68
2023/04/14 01:06:00;;;;;;;8.17;7.07;;;;;;;3.78;100.00;101116.59;4992461;28;20581;-67
2023/04/14 01:08:26;;;;;;;8.57;6.73;;;;;;;3.74;100.00;101115.56;4992223;28;20199;-69
2023/04/14 01:11:07;;;;;;;8.13;6.97;;;;;;;3.67;100.00;101115.16;5008322;28;20241;-67
2023/04/14 01:13:47;;;;;;;10.13;7.80;;;;;;;3.67;100.00;101110.09;4992843;28;20206;-71
2023/04/14 01:16:24;;;;;;;8.80;7.37;;;;;;;3.58;100.00;101113.03;5007757;28;20219;-68
2023/04/14 01:19:15;;;;;;;9.60;7.70;;;;;;;3.56;100.00;101117.16;4992037;28;20195;-67
2023/04/14 01:21:45;;;;;;;8.13;7.17;;;;;;;3.51;100.00;101120.25;5003436;28;20202;-68
2023/04/14 01:24:30;;;;;;;8.07;7.27;;;;;;;3.50;100.00;101121.88;4992569;28;20187;-67
2023/04/14 01:27:05;;;;;;;7.27;6.47;;;;;;;3.46;100.00;101117.47;4991499;28;20649;-71
2023/04/14 01:29:59;;;;;;;10.10;7.33;;;;;;;3.44;100.00;101113.97;4992689;28;20197;-71
2023/04/14 01:32:28;;;;;;;11.40;7.10;;;;;;;3.41;100.00;101111.28;5006648;28;20722;-66
2023/04/14 01:35:07;;;;;;;9.33;7.00;;;;;;;3.44;100.00;101118.16;4991841;28;20676;-68
2023/04/14 01:37:37;;;;;;;8.60;6.67;;;;;;;3.41;100.00;101113.81;5006557;28;20218;-69
2023/04/14 01:40:11;;;;;;;8.03;6.80;;;;;;;3.40;100.00;101109.56;5009944;28;20282;-68
2023/04/14 01:42:41;;;;;;;9.83;6.07;;;;;;;3.37;100.00;101114.47;5007813;28;20669;-69
2023/04/14 01:45:17;;;;;;;6.77;6.00;;;;;;;3.38;100.00;101118.75;5006245;28;20195;-67
2023/04/14 01:47:44;;;;;;;8.20;5.97;;;;;;;3.31;100.00;101123.41;4991966;28;20225;-67
2023/04/14 01:50:11;;;;;;;8.97;6.03;;;;;;;3.32;100.00;101123.47;5007040;28;23902;-68
2023/04/14 01:52:38;;;;;;;7.10;6.00;;;;;;;3.31;100.00;101123.41;5009034;28;20191;-71
2023/04/14 01:55:06;;;;;;;6.80;5.90;;;;;;;3.25;100.00;101123.94;4989048;28;20264;-68
2023/04/14 01:57:35;;;;;;;6.60;5.90;;;;;;;3.23;100.00;101120.47;4991809;28;20617;-68
2023/04/14 02:00:03;;;;;;;7.13;5.67;;;;;;;3.06;100.00;101125.41;4989713;28;20614;-69
2023/04/14 02:02:41;;;;;;;7.20;5.90;;;;;;;3.05;100.00;101128.75;5008210;28;20226;-67
2023/04/14 02:05:08;;;;;;;8.10;5.50;;;;;;;3.03;100.00;101128.66;4989144;28;20203;-70
2023/04/14 02:07:35;;;;;;;6.47;5.63;;;;;;;3.10;100.00;101135.78;4988185;28;20211;-67
2023/04/14 02:10:04;;;;;;;6.27;5.63;;;;;;;3.12;100.00;101129.16;5006510;28;20203;-68
2023/04/14 02:12:30;;;;;;;7.30;5.80;;;;;;;3.06;100.00;101131.34;4991579;28;20206;-68
2023/04/14 02:14:59;;;;;;;7.30;4.87;;;;;;;3.03;100.00;101136.25;5009090;28;20223;-66
2023/04/14 02:17:25;;;;;;;6.60;5.40;;;;;;;2.96;100.00;101139.25;4987626;28;20253;-67
2023/04/14 02:19:53;;;;;;;7.67;5.40;;;;;;;2.91;100.00;101134.72;4989720;28;20788;-69
2023/04/14 02:22:18;;;;;;;7.27;5.60;;;;;;;2.85;100.00;101149.56;4990936;28;20329;-68
2023/04/14 02:24:46;;;;;;;8.33;6.03;;;;;;;2.93;100.00;101146.66;4991422;28;21081;-68
2023/04/14 02:27:17;;;;;;;9.53;6.17;;;;;;;2.97;100.00;101142.63;4990436;28;20688;-70
2023/04/14 02:29:50;;;;;;;7.47;6.17;;;;;;;3.01;100.00;101147.06;5009198;28;20213;-69
2023/04/14 02:32:23;;;;;;;7.93;6.03;;;;;;;2.98;100.00;101147.78;4991325;28;20201;-67
2023/04/14 02:35:03;;;;;;;7.80;6.53;;;;;;;2.97;100.00;101150.22;4991095;28;20294;-67
2023/04/14 02:37:39;;;;;;;9.03;6.87;;;;;;;2.94;100.00;101150.91;5004898;28;20246;-69
2023/04/14 02:40:11;;;;;;;8.43;6.70;;;;;;;2.90;100.00;101146.47;5004627;28;20286;-65
2023/04/14 02:42:40;;;;;;;7.37;6.10;;;;;;;2.86;100.00;101147.13;4990132;28;20203;-66
2023/04/14 02:45:12;;;;;;;9.13;7.33;;;;;;;2.86;100.00;101156.34;4988960;28;20179;-69
2023/04/14 02:47:44;;;;;;;9.73;7.27;;;;;;;2.86;100.00;101153.81;4984952;28;20735;-72
2023/04/14 02:50:13;;;;;;;8.97;7.00;;;;;;;2.83;100.00;101153.66;5004524;28;20278;-67
2023/04/14 02:52:46;;;;;;;9.17;7.67;;;;;;;2.78;100.00;101155.94;4990780;28;20195;-67
2023/04/14 02:55:12;;;;;;;12.23;8.30;;;;;;;2.77;100.00;101156.72;4990850;28;20207;-72
2023/04/14 02:57:38;;;;;;;11.67;8.73;;;;;;;2.76;100.00;101157.50;4989734;28;20876;-66
2023/04/14 03:00:06;;;;;;;12.93;8.67;;;;;;;2.75;100.00;101149.84;4990839;28;20206;-66
2023/04/14 03:02:37;;;;;;;13.37;8.60;;;;;;;2.75;100.00;101152.38;4993005;28;20252;-69
2023/04/14 03:05:07;;;;;;;14.63;9.13;;;;;;;2.66;100.00;101156.94;4990651;28;20207;-67
2023/04/14 03:07:42;;;;;;;11.00;8.30;;;;;;;2.67;100.00;101158.66;4987587;28;20210;-67
2023/04/14 03:10:10;;;;;;;10.87;8.43;;;;;;;2.63;100.00;101156.75;4986989;28;20727;-69
2023/04/14 03:12:37;;;;;;;15.07;9.67;;;;;;;2.64;100.00;101168.59;4999676;28;20222;-67
2023/04/14 03:15:03;;;;;;;13.77;8.40;;;;;;;2.65;100.00;101160.22;4987218;28;20203;-68
2023/04/14 03:17:31;;;;;;;12.80;9.03;;;;;;;2.55;100.00;101163.91;4987932;28;20222;-66
2023/04/14 03:19:57;;;;;;;12.70;9.03;;;;;;;2.45;100.00;101159.13;5003776;28;20271;-66
2023/04/14 03:22:26;;;;;;;12.10;9.20;;;;;;;2.49;100.00;101167.75;4990129;28;20198;-66
2023/04/14 03:24:57;;;;;;;12.37;9.10;;;;;;;2.55;100.00;101166.44;4988601;28;20278;-67
2023/04/14 03:27:29;;;;;;;12.87;9.20;;;;;;;2.56;100.00;101168.16;4985727;28;20211;-70
2023/04/14 03:30:00;;;;;;;12.67;8.67;;;;;;;2.51;100.00;101168.69;5006472;28;20194;-66
2023/04/14 03:32:34;;;;;;;12.03;8.57;;;;;;;2.53;100.00;101177.25;4985229;28;20724;-69
2023/04/14 03:35:01;;;;;;;10.80;8.27;;;;;;;2.51;100.00;101173.75;4988397;28;20260;-70
2023/04/14 03:37:32;;;;;;;10.97;7.60;;;;;;;2.46;100.00;101172.63;4986442;28;20310;-66
2023/04/14 03:40:00;;;;;;;11.70;8.67;;;;;;;2.46;100.00;101176.03;4987753;28;20203;-65
2023/04/14 03:42:30;;;;;;;10.57;8.40;;;;;;;2.45;100.00;101171.75;4991684;28;20191;-66
2023/04/14 03:44:57;;;;;;;11.10;7.60;;;;;;;2.38;100.00;101173.81;4987860;28;20198;-73
2023/04/14 03:47:25;;;;;;;9.23;7.50;;;;;;;2.36;100.00;101183.88;4982771;28;20726;-66
2023/04/14 03:49:56;;;;;;;11.17;7.57;;;;;;;2.35;100.00;101172.00;4989851;28;20203;-67
2023/04/14 03:52:23;;;;;;;9.50;7.70;;;;;;;2.32;100.00;101181.94;5009256;28;20218;-67
2023/04/14 03:54:52;;;;;;;10.67;7.90;;;;;;;2.27;100.00;101182.47;4992135;28;20203;-68
2023/04/14 03:57:19;;;;;;;16.20;10.17;;;;;;;2.25;100.00;101184.91;4993643;28;20222;-71
2023/04/14 03:59:49;;;;;;;16.63;10.47;;;;;;;2.26;100.00;101181.56;4993946;28;20190;-68
2023/04/14 04:02:17;;;;;;;15.77;11.10;;;;;;;2.24;100.00;101183.16;5007986;28;20233;-65
2023/04/14 04:04:44;;;;;;;17.83;10.63;;;;;;;2.22;100.00;101182.22;5006821;28;20199;-69
2023/04/14 04:07:14;;;;;;;22.17;12.37;;;;;;;2.11;100.00;101177.34;5009366;28;20754;-66
2023/04/14 04:09:41;;;;;;;19.13;11.83;;;;;;;2.19;100.00;101181.13;5011989;28;20241;-68
2023/04/14 04:12:10;;;;;;;17.07;12.07;;;;;;;2.17;100.00;101173.50;4994106;28;20210;-66
2023/04/14 04:14:39;;;;;;;17.60;10.63;;;;;;;2.17;100.00;101183.59;4995687;28;20191;-68
2023/04/14 04:17:07;;;;;;;21.23;12.13;;;;;;;2.19;100.00;101186.19;4986465;28;20229;-66
2023/04/14 04:19:35;;;;;;;17.07;11.00;;;;;;;2.18;100.00;101186.97;4995551;28;20234;-65
2023/04/14 04:22:02;;;;;;;21.57;12.00;;;;;;;2.18;100.00;101180.28;4987380;28;20680;-66
2023/04/14 04:24:35;;;;;;;16.53;11.47;;;;;;;2.10;100.00;101184.03;5004227;28;20329;-66
2023/04/14 04:27:01;;;;;;;15.43;10.87;;;;;;;2.14;100.00;101192.63;4993266;28;20215;-66
2023/04/14 04:29:28;;;;;;;18.67;10.90;;;;;;;2.10;100.00;101183.13;4993397;28;20191;-66
2023/04/14 04:31:54;;;;;;;17.70;10.73;;;;;;;2.12;100.00;101179.06;4993223;28;20190;-69
2023/04/14 04:34:22;;;;;;;16.00;10.80;;;;;;;2.17;100.00;101180.19;5009768;28;20195;-66
2023/04/14 04:36:49;;;;;;;68.27;15.47;;;;;;;2.24;100.00;101188.22;4991622;28;20316;-70
2023/04/14 04:39:14;;;;;;;26.03;12.93;;;;;;;2.25;100.00;101181.53;4990799;28;20804;-66
2023/04/14 04:41:41;;;;;;;116.63;17.80;;;;;;;2.27;100.00;101183.34;4990485;28;20194;-70
2023/04/14 04:44:07;;;;;;;59.10;16.17;;;;;;;2.28;100.00;101184.19;5011064;28;20206;-66
2023/04/14 04:46:36;;;;;;;116.63;17.33;;;;;;;2.33;100.00;101183.69;4989174;28;20211;-72
2023/04/14 04:49:01;;;;;;;115.93;17.97;;;;;;;2.34;100.00;101184.56;4989675;28;20681;-71
2023/04/14 04:51:27;;;;;;;94.43;16.47;;;;;;;2.35;100.00;101183.78;4994698;28;20191;-69
2023/04/14 04:53:53;;;;;;;97.63;15.63;;;;;;;2.38;100.00;101183.94;5011139;28;20187;-70
2023/04/14 04:56:18;;;;;;;63.90;14.23;;;;;;;2.43;100.00;101180.88;5007151;28;20703;-69
2023/04/14 04:58:45;;;;;;;20.67;12.43;;;;;;;2.40;100.00;101175.69;5009334;28;20664;-69
2023/04/14 05:01:11;;;;;;;26.87;13.07;;;;;;;2.48;100.00;101186.22;5009838;28;20695;-70
2023/04/14 05:03:37;;;;;;;25.33;14.77;;;;;;;2.52;100.00;101180.56;5010784;28;20282;-66
2023/04/14 05:06:03;;;;;;;20.17;12.73;;;;;;;2.55;100.00;101181.59;5009131;28;20215;-69
2023/04/14 05:08:28;;;;;;;19.57;12.10;;;;;;;2.62;100.00;101180.28;5010149;28;20334;-67
2023/04/14 05:10:54;;;;;;;23.73;12.50;;;;;;;2.65;100.00;101173.75;5006943;28;20847;-67
2023/04/14 05:13:21;;;;;;;19.03;12.07;;;;;;;2.67;100.00;101176.34;5004174;28;20722;-68
2023/04/14 05:15:47;;;;;;;17.00;10.90;;;;;;;2.74;100.00;101181.84;5008873;28;20215;-71
2023/04/14 05:18:12;;;;;;;16.60;10.23;;;;;;;2.75;100.00;101183.56;5009225;28;20830;-67
2023/04/14 05:20:38;;;;;;;14.00;10.10;;;;;;;2.83;100.00;101181.47;5009352;28;20214;-69
2023/04/14 05:23:03;;;;;;;14.37;9.30;;;;;;;2.88;100.00;101178.41;5010185;28;20538;-68
2023/04/14 05:25:28;;;;;;;13.27;8.93;;;;;;;2.97;100.00;101186.50;5009777;28;20274;-67
2023/04/14 05:27:54;;;;;;;13.50;8.43;;;;;;;3.02;100.00;101187.63;5010221;28;20215;-67
2023/04/14 05:30:20;;;;;;;11.13;8.40;;;;;;;3.07;100.00;101180.25;5009156;28;20248;-68
2023/04/14 05:32:45;;;;;;;10.70;8.13;;;;;;;3.16;100.00;101186.69;5009528;28;20183;-66
2023/04/14 05:35:10;;;;;;;11.93;8.27;;;;;;;3.22;100.00;101184.50;5010171;28;20659;-67
2023/04/14 05:37:36;;;;;;;11.43;8.50;;;;;;;3.30;100.00;101189.94;5009864;28;20589;-70
2023/04/14 05:40:02;;;;;;;10.77;8.30;;;;;;;3.37;100.00;101194.56;5010448;28;20688;-68
2023/04/14 05:42:28;;;;;;;11.13;8.07;;;;;;;3.45;100.00;101193.31;5009136;28;20199;-66
2023/04/14 05:44:53;;;;;;;10.07;8.07;;;;;;;3.51;100.00;101186.91;5010348;28;20202;-71
2023/04/14 05:47:18;;;;;;;11.30;8.70;;;;;;;3.56;100.00;101190.56;5008625;28;20223;-68
2023/04/14 05:49:44;;;;;;;14.10;9.27;;;;;;;3.67;100.00;101194.50;5009355;28;20187;-66
2023/04/14 05:52:09;;;;;;;13.80;9.83;;;;;;;3.76;100.00;101195.00;5009850;28;20218;-67
2023/04/14 05:54:35;;;;;;;12.70;9.47;;;;;;;3.84;100.00;101182.72;5009800;28;20202;-67
2023/04/14 05:57:00;;;;;;;10.83;8.80;;;;;;;3.98;100.00;101179.22;5008742;28;20261;-67
2023/04/14 05:59:26;;;;;;;12.77;9.57;;;;;;;4.07;100.00;101183.09;5009692;28;20234;-67
2023/04/14 06:01:51;;;;;;;12.97;9.47;;;;;;;4.18;100.00;101181.13;5009880;28;20229;-69
2023/04/14 06:04:17;;;;;;;11.50;9.70;;;;;;;4.30;100.00;101177.50;5008589;28;20281;-70
2023/04/14 06:06:42;;;;;;;12.87;9.70;;;;;;;4.43;100.00;101177.31;5008734;28;20273;-67
2023/04/14 06:09:08;;;;;;;12.70;9.87;;;;;;;4.57;100.00;101181.41;5009833;28;20206;-67
2023/04/14 06:11:33;;;;;;;11.27;8.90;;;;;;;4.73;100.00;101183.84;5009804;28;20191;-72
2023/04/14 06:14:01;;;;;;;12.13;8.67;;;;;;;4.88;100.00;101183.72;5009716;28;20206;-66
2023/04/14 06:16:27;;;;;;;11.13;8.30;;;;;;;5.00;100.00;101181.75;5004454;28;20225;-68
2023/04/14 06:18:52;;;;;;;11.17;9.03;;;;;;;5.16;100.00;101172.38;5007777;28;20203;-67
2023/04/14 06:21:17;;;;;;;14.67;10.27;;;;;;;5.30;100.00;101180.63;5008383;28;20203;-72
2023/04/14 06:23:43;;;;;;;13.93;9.83;;;;;;;5.40;100.00;101178.59;5008478;28;20252;-67
2023/04/14 06:26:08;;;;;;;13.67;9.57;;;;;;;5.52;100.00;101179.09;5009265;28;20253;-68
2023/04/14 06:28:34;;;;;;;12.23;9.97;;;;;;;5.57;100.00;101182.72;5009018;28;20261;-70
2023/04/14 06:30:59;;;;;;;14.17;9.53;;;;;;;5.65;100.00;101181.41;5009526;28;20195;-67
2023/04/14 06:33:25;;;;;;;13.47;9.83;;;;;;;5.73;100.00;101179.19;4990574;28;20672;-67
2023/04/14 06:35:50;;;;;;;13.87;10.37;;;;;;;5.80;100.00;101177.00;5009286;28;20215;-70
2023/04/14 06:38:16;;;;;;;15.67;10.20;;;;;;;5.87;100.00;101178.16;5007762;28;20201;-68
2023/04/14 06:40:42;;;;;;;14.57;9.63;;;;;;;5.99;100.00;101169.38;5009063;28;20286;-67
2023/04/14 06:43:12;;;;;;;13.67;9.33;;;;;;;6.07;100.00;101173.13;5007793;28;20555;-67
2023/04/14 06:45:38;;;;;;;12.77;9.37;;;;;;;6.16;100.00;101168.41;5008926;28;20281;-68
2023/04/14 06:48:04;;;;;;;13.87;9.17;;;;;;;6.24;100.00;101164.53;5008825;28;20310;-67
2023/04/14 06:50:29;;;;;;;13.17;10.33;;;;;;;6.36;100.00;101175.19;5008751;28;20237;-68
2023/04/14 06:52:55;;;;;;;14.23;10.60;;;;;;;6.46;100.00;101166.28;5007772;28;20195;-70
2023/04/14 06:55:20;;;;;;;13.57;11.03;;;;;;;6.53;100.00;101168.25;5005258;28;20223;-67
2023/04/14 06:57:45;;;;;;;11.37;9.37;;;;;;;6.59;100.00;101166.81;5008659;28;20227;-67
2023/04/14 07:00:13;;;;;;;14.10;9.77;;;;;;;6.71;100.00;101163.88;5006111;28;20199;-69
2023/04/14 07:02:38;;;;;;;11.80;8.20;;;;;;;6.78;100.00;101168.44;5008463;28;20199;-68
2023/04/14 07:05:04;;;;;;;17.93;9.70;;;;;;;6.87;100.00;101167.09;5008856;28;20187;-68
2023/04/14 07:07:34;;;;;;;13.80;10.20;;;;;;;6.98;100.00;101167.50;5007254;28;20561;-69
2023/04/14 07:10:00;;;;;;;14.53;9.47;;;;;;;7.03;100.00;101171.09;5002964;28;20293;-68
2023/04/14 07:12:25;;;;;;;14.37;9.17;;;;;;;7.12;100.00;101167.25;5005097;28;20195;-66
2023/04/14 07:14:51;;;;;;;11.57;8.10;;;;;;;7.19;100.00;101160.72;5008563;28;20341;-67
2023/04/14 07:17:18;;;;;;;10.63;7.23;;;;;;;7.26;100.00;101165.22;4989944;28;20227;-69
2023/04/14 07:19:44;;;;;;;9.80;7.47;;;;;;;7.37;100.00;101162.25;5004006;28;20195;-67
2023/04/14 07:22:11;;;;;;;8.93;8.00;;;;;;;7.52;100.00;101162.84;5007314;28;20198;-70
2023/04/14 07:24:37;;;;;;;11.87;7.03;;;;;;;7.63;100.00;101164.06;5008174;28;20201;-67
2023/04/14 07:27:06;;;;;;;9.23;7.13;;;;;;;7.79;100.00;101160.41;5007935;28;20563;-67
2023/04/14 07:29:32;;;;;;;10.00;6.50;;;;;;;7.94;100.00;101161.81;5005106;28;20305;-67
2023/04/14 07:31:58;;;;;;;10.57;6.70;;;;;;;8.04;100.00;101162.97;5008332;28;20195;-67
2023/04/14 07:34:23;;;;;;;11.03;6.03;;;;;;;8.13;100.00;101166.72;5007852;28;20260;-70
2023/04/14 07:36:48;;;;;;;6.47;5.77;;;;;;;8.30;100.00;101164.75;5007284;28;20266;-66
2023/04/14 07:39:14;;;;;;;7.43;5.30;;;;;;;8.43;100.00;101169.47;5008128;28;20634;-66
2023/04/14 07:41:40;;;;;;;6.13;4.90;;;;;;;8.50;100.00;101167.16;5008120;28;20566;-70
2023/04/14 07:44:05;;;;;;;6.30;5.17;;;;;;;8.70;100.00;101163.56;5008436;28;20195;-69
2023/04/14 07:46:31;;;;;;;7.70;5.73;;;;;;;8.89;100.00;101167.56;5004445;28;21020;-68
2023/04/14 07:48:56;;;;;;;7.00;5.30;;;;;;;9.07;100.00;101160.47;5008519;28;20290;-67
2023/04/14 07:51:22;;;;;;;9.73;5.13;;;;;;;9.17;100.00;101170.97;5007684;28;20413;-70
2023/04/14 07:53:47;;;;;;;9.37;5.63;;;;;;;9.26;100.00;101168.69;5007220;28;20187;-66
2023/04/14 07:56:14;;;;;;;5.70;5.10;;;;;;;9.44;100.00;101163.28;5006057;28;20222;-65
2023/04/14 07:58:39;;;;;;;6.83;4.60;;;;;;;9.63;100.00;101166.38;5007942;28;20557;-66
2023/04/14 08:01:05;;;;;;;6.90;3.93;;;;;;;9.74;100.00;101167.56;5005717;28;20199;-66
2023/04/14 08:03:30;;;;;;;6.57;3.83;;;;;;;9.87;100.00;101172.16;5006566;28;20207;-66
2023/04/14 08:05:56;;;;;;;10.37;3.90;;;;;;;10.04;100.00;101168.41;5007613;28;20282;-65
2023/04/14 08:08:23;;;;;;;4.33;2.73;;;;;;;10.18;100.00;101167.09;5004943;28;20199;-67
2023/04/14 08:10:48;;;;;;;6.93;3.20;;;;;;;10.30;100.00;101175.09;5008109;28;20270;-66
2023/04/14 08:13:14;;;;;;;5.47;2.90;;;;;;;10.41;100.00;101176.22;5005795;28;20326;-69
2023/04/14 08:15:39;;;;;;;9.73;3.20;;;;;;;10.48;100.00;101167.88;5007542;28;20218;-67
2023/04/14 08:18:05;;;;;;;7.33;3.00;;;;;;;10.61;100.00;101171.59;5006001;28;20820;-68
2023/04/14 08:20:30;;;;;;;8.93;3.13;;;;;;;10.71;100.00;101156.50;5005891;28;20241;-68
2023/04/14 08:22:56;;;;;;;6.57;3.23;;;;;;;10.82;100.00;101164.41;5007400;28;20225;-68
2023/04/14 08:25:21;;;;;;;9.53;2.63;;;;;;;10.88;100.00;101160.28;5007352;28;20195;-70
2023/04/14 08:27:47;;;;;;;7.37;2.80;;;;;;;11.08;100.00;101161.63;5006694;28;20720;-65
2023/04/14 08:30:12;;;;;;;6.13;2.90;;;;;;;11.18;100.00;101155.88;4989599;28;20253;-66
2023/04/14 08:32:38;;;;;;;5.47;2.43;;;;;;;11.29;100.00;101128.75;5006577;28;20207;-70
2023/04/14 08:35:04;;;;;;;3.67;2.17;;;;;;;11.45;100.00;101127.38;5009560;28;20325;-66
2023/04/14 08:37:29;;;;;;;6.43;2.40;;;;;;;11.61;100.00;101130.31;5004069;28;20234;-66
2023/04/14 08:39:55;;;;;;;5.27;2.20;;;;;;;11.67;100.00;101109.06;5009744;28;20281;-67
2023/04/14 08:42:20;;;;;;;4.53;2.20;;;;;;;11.76;100.00;101125.47;5010307;28;20195;-68
2023/04/14 08:44:47;;;;;;;6.43;2.43;;;;;;;11.78;100.00;101098.16;5010743;28;20860;-67
2023/04/14 08:47:13;;;;;;;5.60;2.10;;;;;;;11.92;100.00;101073.59;5008176;28;20628;-69
2023/04/14 08:50:00;;;;;;;5.27;2.23;;;;;;;12.05;100.00;101108.03;5010049;28;20645;-68
2023/04/14 08:52:27;;;;;;;4.80;2.13;;;;;;;12.07;100.00;101050.75;5009529;28;20207;-68
2023/04/14 08:54:55;;;;;;;5.90;2.00;;;;;;;12.13;100.00;101066.25;5007128;28;20262;-71
2023/04/14 08:57:23;;;;;;;4.63;1.77;;;;;;;12.24;100.00;101062.19;5008906;28;20214;-69
2023/04/14 08:59:50;;;;;;;5.83;2.40;;;;;;;12.40;100.00;101081.25;5010658;28;20930;-68
2023/04/14 09:02:17;;;;;;;4.10;1.97;;;;;;;12.39;100.00;101072.69;5010271;28;20249;-68
2023/04/14 09:04:43;;;;;;;6.70;1.90;;;;;;;12.38;100.00;101029.88;5005972;28;20191;-66
2023/04/14 09:07:08;;;;;;;5.13;1.67;;;;;;;12.46;100.00;101010.31;5009469;28;20218;-67
2023/04/14 09:09:34;;;;;;;6.10;2.00;;;;;;;12.63;100.00;100997.69;5009874;28;20231;-67
2023/04/14 09:12:02;;;;;;;3.23;1.87;;;;;;;12.50;100.00;100975.25;5009286;28;20203;-69
2023/04/14 09:14:28;;;;;;;3.43;1.67;;;;;;;12.58;100.00;100919.72;5009684;28;20214;-68
2023/04/14 09:16:55;;;;;;;5.13;2.13;;;;;;;12.80;100.00;100983.34;5009688;28;20281;-67
2023/04/14 09:19:23;;;;;;;3.67;1.57;;;;;;;12.83;100.00;100956.00;5009709;28;20199;-69
2023/04/14 09:21:48;;;;;;;7.53;1.90;;;;;;;12.75;100.00;100949.00;5000076;28;20285;-70
2023/04/14 09:24:17;;;;;;;2.90;1.90;;;;;;;12.86;100.00;100921.75;5004068;28;20252;-67
2023/04/14 09:26:42;;;;;;;5.53;1.83;;;;;;;12.68;100.00;100942.94;5009519;28;20211;-69
2023/04/14 09:29:08;;;;;;;3.87;1.73;;;;;;;12.77;100.00;100955.91;5007119;28;20795;-67
2023/04/14 09:31:34;;;;;;;3.93;1.53;;;;;;;12.69;100.00;100948.94;5008959;28;20210;-67
2023/04/14 09:33:59;;;;;;;3.47;1.63;;;;;;;12.55;100.00;100902.56;5010216;28;20276;-68
2023/04/14 09:36:26;;;;;;;4.30;1.50;;;;;;;12.52;100.00;100881.09;5009069;28;20211;-68
2023/04/14 09:38:52;;;;;;;7.33;2.00;;;;;;;12.63;100.00;100934.31;4992413;28;20234;-66
2023/04/14 09:41:21;;;;;;;3.77;1.17;;;;;;;12.70;100.00;100979.81;5008350;28;20238;-73
2023/04/14 09:43:47;;;;;;;6.83;1.70;;;;;;;12.51;100.00;100935.88;5009640;28;20797;-67
2023/04/14 09:46:14;;;;;;;4.77;1.60;;;;;;;12.56;100.00;100927.38;5007183;28;20215;-67
2023/04/14 09:48:55;;;;;;;4.23;1.40;;;;;;;12.41;100.00;100911.78;5008822;28;20195;-70
2023/04/14 09:51:23;;;;;;;5.77;1.40;;;;;;;12.45;100.00;100908.38;5002203;28;20219;-67
2023/04/14 09:53:51;;;;;;;3.03;1.57;;;;;;;12.43;100.00;100924.63;4997054;28;20187;-67
2023/04/14 09:56:16;;;;;;;5.17;1.63;;;;;;;12.27;100.00;100913.31;5003363;28;20223;-69
2023/04/14 09:58:43;;;;;;;6.77;1.60;;;;;;;12.37;100.00;100939.97;5007518;28;20203;-70
2023/04/14 10:01:15;;;;;;;4.60;1.97;;;;;;;12.33;100.00;100972.44;5007900;28;20195;-67
2023/04/14 10:03:50;;;;;;;4.13;1.60;;;;;;;12.31;100.00;100953.56;5004094;28;20195;-69
2023/04/14 10:06:21;;;;;;;4.43;2.07;;;;;;;12.21;100.00;100941.44;5004169;28;20456;-67
2023/04/14 10:08:51;;;;;;;3.57;1.87;;;;;;;12.34;100.00;100974.16;5007111;28;20206;-67
2023/04/14 10:11:16;;;;;;;6.93;2.00;;;;;;;12.34;100.00;100971.59;5007720;28;20194;-68
2023/04/14 10:13:43;;;;;;;6.03;1.80;;;;;;;12.44;100.00;100981.16;5007136;28;20472;-67
2023/04/14 10:16:09;;;;;;;5.43;2.30;;;;;;;12.35;100.00;100969.91;5007440;28;20223;-66
2023/04/14 10:18:35;;;;;;;4.07;1.90;;;;;;;12.38;100.00;100945.13;4988451;28;20675;-66
2023/04/14 10:21:02;;;;;;;5.33;2.20;;;;;;;12.38;100.00;100945.13;5006334;28;20229;-69
2023/04/14 10:23:30;;;;;;;5.53;2.40;;;;;;;12.45;100.00;100975.16;5006591;28;20268;-66
2023/04/14 10:25:56;;;;;;;5.60;2.40;;;;;;;12.32;100.00;100992.97;5008384;28;20187;-67
2023/04/14 10:28:24;;;;;;;5.93;2.50;;;;;;;12.45;100.00;100985.44;5007414;28;20849;-67
2023/04/14 10:30:53;;;;;;;5.43;2.70;;;;;;;12.47;100.00;100990.59;5009089;28;20556;-66
2023/04/14 10:33:19;;;;;;;7.00;2.70;;;;;;;12.56;100.00;101001.88;5005749;28;20203;-66
2023/04/14 10:35:52;;;;;;;6.07;2.60;;;;;;;12.48;100.00;100992.31;5007595;28;20257;-66
2023/04/14 10:38:17;;;;;;;5.07;3.00;;;;;;;12.60;100.00;101001.09;5007730;28;20210;-71
2023/04/14 10:40:47;;;;;;;5.17;2.90;;;;;;;12.68;100.00;100990.91;5008622;28;20252;-67
2023/04/14 10:43:12;;;;;;;6.70;2.73;;;;;;;12.62;100.00;100988.22;5008625;28;20241;-67
2023/04/14 10:45:58;;;;;;;4.47;2.50;;;;;;;12.63;100.00;101024.22;5008172;28;20192;-66
2023/04/14 10:48:25;;;;;;;8.23;2.80;;;;;;;12.74;100.00;101056.09;5007338;28;20198;-68
2023/04/14 10:50:57;;;;;;;6.33;2.67;;;;;;;12.81;100.00;101041.63;5007650;28;20322;-72
2023/04/14 10:53:26;;;;;;;6.63;2.70;;;;;;;12.89;100.00;101020.31;5005579;28;20205;-70
2023/04/14 10:55:55;;;;;;;5.87;2.70;;;;;;;12.95;100.00;101016.97;5006823;28;20226;-71
2023/04/14 10:58:22;;;;;;;9.03;2.67;;;;;;;13.06;100.00;101024.81;5005884;28;20199;-69
2023/04/14 11:00:47;;;;;;;6.87;3.20;;;;;;;13.12;100.00;101023.19;5007530;28;20229;-71
2023/04/14 11:03:16;;;;;;;4.10;2.27;;;;;;;13.23;100.00;100997.59;5004409;28;20199;-70
2023/04/14 11:05:48;;;;;;;5.43;3.10;;;;;;;13.20;100.00;100995.00;5005712;28;20195;-67
2023/04/14 11:08:14;;;;;;;2.87;2.37;;;;;;;13.08;100.00;100994.88;5006872;28;20249;-70
2023/04/14 11:10:41;;;;;;;2.40;2.20;;;;;;;13.11;100.00;101005.19;5006274;28;20194;-69
2023/04/14 11:13:11;;;;;;;2.53;1.73;;;;;;;13.10;100.00;101057.44;5006143;28;20950;-74
2023/04/14 11:16:09;;;;;;;3.23;2.30;;;;;;;12.82;100.00;101149.56;5006784;28;20209;-69
2023/04/14 11:18:44;;;;;;;2.87;2.60;;;;;;;12.72;100.00;101219.66;4970234;28;20226;-71
2023/04/14 11:21:15;;;;;;;2.90;2.60;;;;;;;12.48;100.00;101242.34;5007353;28;20199;-69